Sharpsville, IN (46068)

8:04 PM EST on March 01, 2015 (GMT -0500)
BSH-FSF | Change Station
CLOSE
Current Station
Personal Weather Station
Location: Sharpsville, IN
Elevation: 886 ft
Nearby Weather Stations

Elev 886 ft 40.38 °N, 86.13 °W | Updated 13 minutes ago

Partly Cloudy
Partly Cloudy
24.1 °F
Feels Like 19 °F
N
4.0
Wind Variable Wind from WSW

Today
High -- | Low -- °F
--% Chance of Precip.
Yesterday
High -- | Low -- °F
Precip. -- in
7:18 AM 6:35 PM
Waxing Gibbous, 88% visible
Pressure 30.30 in
Visibility 7.0 miles
Clouds Clear
Windchill 19 °F
Dew Point 22 °F
Humidity 91%
Rainfall 0.20 in
Snow Depth Not available.
UV 0 out of 12
Pollen .60 out of 12
Air Quality Not available.
Flu Activity Not available.
METAR KOKK 020055Z AUTO 27008KT 7SM CLR M06/M08 A3030 RMK AO1 P0001

More Conditions Fewer Conditions

Pressure 30.30 in
Visibility 7.0 miles
Clouds Clear
Windchill 19 °F
Dew Point 22 °F
Humidity 91%
Rainfall 0.20 in
Snow Depth Not available.
UV 0 out of 12
Pollen .60 out of 12
Air Quality Not available.
Flu Activity Not available.
METAR KOKK 020055Z AUTO 27008KT 7SM CLR M06/M08 A3030 RMK AO1 P0001

More Conditions Fewer Conditions

10-Day Weather Forecast

Almanac

Astronomy

Mar. 01, 2015 Rise Set
Actual Time
Civil Twilight
Nautical Twilight
Astronomical Twilight
Moon
Length of Visible Light
Length of Day
Tomorrow will be .
, % of the Moon is Illuminated

Today's Extremes

State Highs State Lows

Community

WunderPhotos

Upload Photos

1,801,669 photos uploaded!

WunderBlogs® & News

Nearby

Air Quality

  Air Quality AQ Index Pollutant
Not available.

Snow Depth

Station Depth Elevation

Earthquake Activity

City Distance Mag. Time & Date
Minimum magnitude displayed is 2.5.

Coastal Water Temperatures

Place Temperature

Nearby Weather Stations